Cherokee, North Carolina
Current Conditions -  °F | °C
As of 6:55 PM on Sunday 23 Nov 2014 (Local Time) from KGKT Reporting Station
Overcast Overcast  
Wind Chill: 54°   Ceiling: 6000
Heat Index: 54°   Visibility: 10mi
Dew Point: 52°   Wind: 5mph
Humidity: 94%   Direction: 130°SE
Pressure: 29.6"   Gusts: NA
Location:  35.47°N, 83.31°W
Report Text: KGKT 232355Z AUTO 13004KT 10SM FEW048 BKN060 OVC100 12/11 A2960 RMK
Loading
Personal Weather Stations






























Interactive Weather Map New forecast layout! Learn more

10-Day Weather Forecast

Advertisements
Track Severe Weather on mobile